Austin, Colorado
Current Conditions -  °F | °C
As of 4:15 AM on Monday 22 Dec 2014 (Local Time) from KAJZ Reporting Station
Overcast Overcast  
Wind Chill: 35°   Ceiling: 7000
Heat Index: 35°   Visibility: 7mi
Dew Point: 33°   Wind: 3mph
Humidity: 93%   Direction: 40°NE
Pressure: 29.89"   Gusts: NA
Location:  38.78°N, 107.95°W
Report Text: KAJZ 221115Z AUTO 04003KT 7SM SCT060 BKN070 OVC110 02/01 A2989 RMK AO2 T00150005
Loading
Personal Weather Stations






























Interactive Weather Map New forecast layout! Learn more

10-Day Weather Forecast

Advertisements
Track Severe Weather on mobile